sensor_id;sensor_type;location;lat;lon;timestamp;temperature;humidity
25949;DHT22;13961;51.178;4.448;2023-08-21T00:01:10;21.80;99.90
25949;DHT22;13961;51.178;4.448;2023-08-21T00:03:35;21.80;99.90
25949;DHT22;13961;51.178;4.448;2023-08-21T00:06:01;21.20;99.90
25949;DHT22;13961;51.178;4.448;2023-08-21T00:08:27;20.70;99.90
25949;DHT22;13961;51.178;4.448;2023-08-21T00:10:52;20.90;99.90
25949;DHT22;13961;51.178;4.448;2023-08-21T00:13:18;20.90;99.90
25949;DHT22;13961;51.178;4.448;2023-08-21T00:15:44;21.10;99.90
25949;DHT22;13961;51.178;4.448;2023-08-21T00:18:10;21.30;99.90
25949;DHT22;13961;51.178;4.448;2023-08-21T00:20:36;21.00;99.90
25949;DHT22;13961;51.178;4.448;2023-08-21T00:23:01;20.40;99.90
25949;DHT22;13961;51.178;4.448;2023-08-21T00:25:27;20.50;99.90
25949;DHT22;13961;51.178;4.448;2023-08-21T00:27:53;20.70;99.90
25949;DHT22;13961;51.178;4.448;2023-08-21T00:30:19;20.60;99.90
25949;DHT22;13961;51.178;4.448;2023-08-21T00:32:45;20.80;99.90
25949;DHT22;13961;51.178;4.448;2023-08-21T00:35:10;20.60;99.90
25949;DHT22;13961;51.178;4.448;2023-08-21T00:37:37;20.60;99.90
25949;DHT22;13961;51.178;4.448;2023-08-21T00:40:03;20.60;99.90
25949;DHT22;13961;51.178;4.448;2023-08-21T00:42:28;20.90;99.90
25949;DHT22;13961;51.178;4.448;2023-08-21T00:44:54;21.10;99.90
25949;DHT22;13961;51.178;4.448;2023-08-21T00:47:20;20.90;99.90
25949;DHT22;13961;51.178;4.448;2023-08-21T00:49:46;20.80;99.90
25949;DHT22;13961;51.178;4.448;2023-08-21T00:52:12;21.00;99.90
25949;DHT22;13961;51.178;4.448;2023-08-21T00:54:40;21.10;99.90
25949;DHT22;13961;51.178;4.448;2023-08-21T00:57:06;21.20;99.90
25949;DHT22;13961;51.178;4.448;2023-08-21T00:59:32;21.30;99.90
25949;DHT22;13961;51.178;4.448;2023-08-21T01:01:58;21.30;99.90
25949;DHT22;13961;51.178;4.448;2023-08-21T01:04:24;21.20;99.90
25949;DHT22;13961;51.178;4.448;2023-08-21T01:06:49;21.10;99.90
25949;DHT22;13961;51.178;4.448;2023-08-21T01:09:33;21.10;99.90
25949;DHT22;13961;51.178;4.448;2023-08-21T01:17:16;21.10;99.90
25949;DHT22;13961;51.178;4.448;2023-08-21T01:19:48;21.10;99.90
25949;DHT22;13961;51.178;4.448;2023-08-21T01:22:14;20.90;99.90
25949;DHT22;13961;51.178;4.448;2023-08-21T01:24:40;20.90;99.90
25949;DHT22;13961;51.178;4.448;2023-08-21T01:27:06;20.90;99.90
25949;DHT22;13961;51.178;4.448;2023-08-21T01:29:32;20.90;99.90
25949;DHT22;13961;51.178;4.448;2023-08-21T01:32:14;20.90;99.90
25949;DHT22;13961;51.178;4.448;2023-08-21T01:34:42;20.80;99.90
25949;DHT22;13961;51.178;4.448;2023-08-21T01:37:09;20.80;99.90
25949;DHT22;13961;51.178;4.448;2023-08-21T01:39:36;20.60;99.90
25949;DHT22;13961;51.178;4.448;2023-08-21T01:42:01;20.70;99.90
25949;DHT22;13961;51.178;4.448;2023-08-21T01:44:27;20.80;99.90
25949;DHT22;13961;51.178;4.448;2023-08-21T01:46:53;20.60;99.90
25949;DHT22;13961;51.178;4.448;2023-08-21T01:49:19;20.60;99.90
25949;DHT22;13961;51.178;4.448;2023-08-21T01:51:45;20.60;99.90
25949;DHT22;13961;51.178;4.448;2023-08-21T01:54:11;20.60;99.90
25949;DHT22;13961;51.178;4.448;2023-08-21T01:56:37;20.60;99.90
25949;DHT22;13961;51.178;4.448;2023-08-21T01:59:04;20.60;99.90
25949;DHT22;13961;51.178;4.448;2023-08-21T02:01:30;20.70;99.90
25949;DHT22;13961;51.178;4.448;2023-08-21T02:03:55;20.70;99.90
25949;DHT22;13961;51.178;4.448;2023-08-21T02:06:21;20.70;99.90
25949;DHT22;13961;51.178;4.448;2023-08-21T02:08:47;20.60;99.90
25949;DHT22;13961;51.178;4.448;2023-08-21T02:11:12;20.60;99.90
25949;DHT22;13961;51.178;4.448;2023-08-21T02:13:38;20.40;99.90
25949;DHT22;13961;51.178;4.448;2023-08-21T02:16:04;20.40;99.90
25949;DHT22;13961;51.178;4.448;2023-08-21T02:18:29;20.50;99.90
25949;DHT22;13961;51.178;4.448;2023-08-21T02:20:55;20.60;99.90
25949;DHT22;13961;51.178;4.448;2023-08-21T02:23:21;20.50;99.90
25949;DHT22;13961;51.178;4.448;2023-08-21T02:25:46;20.60;99.90
25949;DHT22;13961;51.178;4.448;2023-08-21T02:28:14;20.50;99.90
25949;DHT22;13961;51.178;4.448;2023-08-21T02:30:41;20.50;99.90
25949;DHT22;13961;51.178;4.448;2023-08-21T02:33:07;20.50;99.90
25949;DHT22;13961;51.178;4.448;2023-08-21T02:35:32;20.40;99.90
25949;DHT22;13961;51.178;4.448;2023-08-21T02:37:58;20.50;99.90
25949;DHT22;13961;51.178;4.448;2023-08-21T02:40:24;20.50;99.90
25949;DHT22;13961;51.178;4.448;2023-08-21T02:42:49;20.60;99.90
25949;DHT22;13961;51.178;4.448;2023-08-21T02:45:15;20.50;99.90
25949;DHT22;13961;51.178;4.448;2023-08-21T02:47:42;20.40;99.90
25949;DHT22;13961;51.178;4.448;2023-08-21T02:50:09;20.40;99.90
25949;DHT22;13961;51.178;4.448;2023-08-21T02:52:35;20.50;99.90
25949;DHT22;13961;51.178;4.448;2023-08-21T02:55:02;20.40;99.90
25949;DHT22;13961;51.178;4.448;2023-08-21T02:57:28;20.30;99.90
25949;DHT22;13961;51.178;4.448;2023-08-21T02:59:55;20.20;99.90
25949;DHT22;13961;51.178;4.448;2023-08-21T03:02:21;20.30;99.90
25949;DHT22;13961;51.178;4.448;2023-08-21T03:04:47;20.30;99.90
25949;DHT22;13961;51.178;4.448;2023-08-21T03:07:13;20.00;99.90
25949;DHT22;13961;51.178;4.448;2023-08-21T03:09:40;20.00;99.90
25949;DHT22;13961;51.178;4.448;2023-08-21T03:12:06;20.00;99.90
25949;DHT22;13961;51.178;4.448;2023-08-21T03:14:33;20.00;99.90
25949;DHT22;13961;51.178;4.448;2023-08-21T03:16:58;20.10;99.90
25949;DHT22;13961;51.178;4.448;2023-08-21T03:19:24;20.20;99.90
25949;DHT22;13961;51.178;4.448;2023-08-21T03:21:49;20.10;99.90
25949;DHT22;13961;51.178;4.448;2023-08-21T03:24:15;20.10;99.90
25949;DHT22;13961;51.178;4.448;2023-08-21T03:26:41;20.20;99.90
25949;DHT22;13961;51.178;4.448;2023-08-21T03:29:06;20.20;99.90
25949;DHT22;13961;51.178;4.448;2023-08-21T03:31:32;20.20;99.90
25949;DHT22;13961;51.178;4.448;2023-08-21T03:33:58;20.20;99.90
25949;DHT22;13961;51.178;4.448;2023-08-21T03:36:24;20.30;99.90
25949;DHT22;13961;51.178;4.448;2023-08-21T03:38:57;20.30;99.90
25949;DHT22;13961;51.178;4.448;2023-08-21T03:41:23;20.20;99.90
25949;DHT22;13961;51.178;4.448;2023-08-21T03:43:48;20.30;99.90
25949;DHT22;13961;51.178;4.448;2023-08-21T03:46:14;20.30;99.90
25949;DHT22;13961;51.178;4.448;2023-08-21T03:48:40;20.40;99.90
25949;DHT22;13961;51.178;4.448;2023-08-21T03:51:05;20.40;99.90
25949;DHT22;13961;51.178;4.448;2023-08-21T03:53:32;20.40;99.90
25949;DHT22;13961;51.178;4.448;2023-08-21T03:55:58;20.40;99.90
25949;DHT22;13961;51.178;4.448;2023-08-21T03:58:23;20.20;99.90
25949;DHT22;13961;51.178;4.448;2023-08-21T04:00:51;20.30;99.90
25949;DHT22;13961;51.178;4.448;2023-08-21T04:03:16;20.20;99.90
25949;DHT22;13961;51.178;4.448;2023-08-21T04:05:42;20.30;99.90
25949;DHT22;13961;51.178;4.448;2023-08-21T04:08:08;20.30;99.90
25949;DHT22;13961;51.178;4.448;2023-08-21T04:10:34;20.20;99.90
25949;DHT22;13961;51.178;4.448;2023-08-21T04:12:59;20.20;99.90
25949;DHT22;13961;51.178;4.448;2023-08-21T04:15:25;20.20;99.90
25949;DHT22;13961;51.178;4.448;2023-08-21T04:17:51;20.10;99.90
25949;DHT22;13961;51.178;4.448;2023-08-21T04:20:19;20.00;99.90
25949;DHT22;13961;51.178;4.448;2023-08-21T04:22:45;20.10;99.90
25949;DHT22;13961;51.178;4.448;2023-08-21T04:25:11;19.90;99.90
25949;DHT22;13961;51.178;4.448;2023-08-21T04:27:37;19.90;99.90
25949;DHT22;13961;51.178;4.448;2023-08-21T04:30:03;19.90;99.90
25949;DHT22;13961;51.178;4.448;2023-08-21T04:32:29;19.90;99.90
25949;DHT22;13961;51.178;4.448;2023-08-21T04:34:54;20.00;99.90
25949;DHT22;13961;51.178;4.448;2023-08-21T04:37:20;19.90;99.90
25949;DHT22;13961;51.178;4.448;2023-08-21T04:39:49;20.00;99.90
25949;DHT22;13961;51.178;4.448;2023-08-21T04:42:15;19.80;99.90
25949;DHT22;13961;51.178;4.448;2023-08-21T04:44:41;19.70;99.90
25949;DHT22;13961;51.178;4.448;2023-08-21T04:47:24;19.70;99.90
25949;DHT22;13961;51.178;4.448;2023-08-21T04:49:51;19.70;99.90
25949;DHT22;13961;51.178;4.448;2023-08-21T04:52:17;19.80;99.90
25949;DHT22;13961;51.178;4.448;2023-08-21T04:54:43;19.90;99.90
25949;DHT22;13961;51.178;4.448;2023-08-21T04:57:09;19.90;99.90
25949;DHT22;13961;51.178;4.448;2023-08-21T04:59:35;20.00;99.90
25949;DHT22;13961;51.178;4.448;2023-08-21T05:02:02;20.10;99.90
25949;DHT22;13961;51.178;4.448;2023-08-21T05:04:28;20.20;99.90
25949;DHT22;13961;51.178;4.448;2023-08-21T05:06:54;20.10;99.90
25949;DHT22;13961;51.178;4.448;2023-08-21T05:09:19;20.20;99.90
25949;DHT22;13961;51.178;4.448;2023-08-21T05:11:45;20.20;99.90
25949;DHT22;13961;51.178;4.448;2023-08-21T05:14:11;20.30;99.90
25949;DHT22;13961;51.178;4.448;2023-08-21T05:16:37;20.30;99.90
25949;DHT22;13961;51.178;4.448;2023-08-21T05:19:02;20.40;99.90
25949;DHT22;13961;51.178;4.448;2023-08-21T05:21:29;20.20;99.90
25949;DHT22;13961;51.178;4.448;2023-08-21T05:23:55;20.30;99.90
25949;DHT22;13961;51.178;4.448;2023-08-21T05:26:21;20.40;99.90
25949;DHT22;13961;51.178;4.448;2023-08-21T05:28:46;20.40;99.90
25949;DHT22;13961;51.178;4.448;2023-08-21T05:31:12;20.40;99.90
25949;DHT22;13961;51.178;4.448;2023-08-21T05:33:38;20.50;99.90
25949;DHT22;13961;51.178;4.448;2023-08-21T05:36:04;20.60;99.90
25949;DHT22;13961;51.178;4.448;2023-08-21T05:38:31;20.60;99.90
25949;DHT22;13961;51.178;4.448;2023-08-21T05:40:57;20.60;99.90
25949;DHT22;13961;51.178;4.448;2023-08-21T05:43:24;20.70;99.90
25949;DHT22;13961;51.178;4.448;2023-08-21T05:45:50;20.80;99.90
25949;DHT22;13961;51.178;4.448;2023-08-21T05:48:16;20.90;99.90
25949;DHT22;13961;51.178;4.448;2023-08-21T05:50:44;20.90;99.90
25949;DHT22;13961;51.178;4.448;2023-08-21T05:53:12;21.10;99.90
25949;DHT22;13961;51.178;4.448;2023-08-21T05:55:37;21.20;99.90
25949;DHT22;13961;51.178;4.448;2023-08-21T05:58:05;21.30;99.90
25949;DHT22;13961;51.178;4.448;2023-08-21T06:00:33;21.40;99.90
25949;DHT22;13961;51.178;4.448;2023-08-21T06:03:00;21.40;99.90
25949;DHT22;13961;51.178;4.448;2023-08-21T06:05:25;21.30;99.90
25949;DHT22;13961;51.178;4.448;2023-08-21T06:07:51;21.30;99.90
25949;DHT22;13961;51.178;4.448;2023-08-21T06:10:17;21.30;99.90
25949;DHT22;13961;51.178;4.448;2023-08-21T06:12:45;21.40;99.90
25949;DHT22;13961;51.178;4.448;2023-08-21T06:15:11;21.40;99.90
25949;DHT22;13961;51.178;4.448;2023-08-21T06:17:37;21.40;99.90
25949;DHT22;13961;51.178;4.448;2023-08-21T06:20:05;21.60;99.90
25949;DHT22;13961;51.178;4.448;2023-08-21T06:22:32;21.70;99.90
25949;DHT22;13961;51.178;4.448;2023-08-21T06:25:00;21.70;99.90
25949;DHT22;13961;51.178;4.448;2023-08-21T06:27:26;21.80;99.90
25949;DHT22;13961;51.178;4.448;2023-08-21T06:29:53;22.00;99.90
25949;DHT22;13961;51.178;4.448;2023-08-21T06:32:19;22.20;99.90
25949;DHT22;13961;51.178;4.448;2023-08-21T06:34:45;22.10;99.90
25949;DHT22;13961;51.178;4.448;2023-08-21T06:37:11;22.50;99.90
25949;DHT22;13961;51.178;4.448;2023-08-21T06:39:38;23.60;99.90
25949;DHT22;13961;51.178;4.448;2023-08-21T06:42:04;24.60;99.90
25949;DHT22;13961;51.178;4.448;2023-08-21T06:44:30;24.50;99.90
25949;DHT22;13961;51.178;4.448;2023-08-21T06:46:59;24.50;99.90
25949;DHT22;13961;51.178;4.448;2023-08-21T06:49:25;25.70;99.90
25949;DHT22;13961;51.178;4.448;2023-08-21T06:51:52;27.20;99.90
25949;DHT22;13961;51.178;4.448;2023-08-21T06:54:24;27.90;99.90
25949;DHT22;13961;51.178;4.448;2023-08-21T06:56:49;28.10;99.90
25949;DHT22;13961;51.178;4.448;2023-08-21T06:59:16;29.00;99.90
25949;DHT22;13961;51.178;4.448;2023-08-21T07:01:42;29.70;99.90
25949;DHT22;13961;51.178;4.448;2023-08-21T07:04:08;30.30;99.90
25949;DHT22;13961;51.178;4.448;2023-08-21T07:06:34;30.80;99.90
25949;DHT22;13961;51.178;4.448;2023-08-21T07:09:03;30.80;99.90
25949;DHT22;13961;51.178;4.448;2023-08-21T07:11:30;30.80;99.90
25949;DHT22;13961;51.178;4.448;2023-08-21T07:13:56;31.30;99.90
25949;DHT22;13961;51.178;4.448;2023-08-21T07:16:23;31.20;99.90
25949;DHT22;13961;51.178;4.448;2023-08-21T07:18:48;30.70;99.90
25949;DHT22;13961;51.178;4.448;2023-08-21T07:21:15;30.90;99.90
25949;DHT22;13961;51.178;4.448;2023-08-21T07:23:42;29.80;99.90
25949;DHT22;13961;51.178;4.448;2023-08-21T07:26:11;29.90;99.90
25949;DHT22;13961;51.178;4.448;2023-08-21T07:28:37;30.20;99.90
25949;DHT22;13961;51.178;4.448;2023-08-21T07:31:09;31.50;99.90
25949;DHT22;13961;51.178;4.448;2023-08-21T07:33:35;32.00;99.90
25949;DHT22;13961;51.178;4.448;2023-08-21T07:36:05;32.70;99.90
25949;DHT22;13961;51.178;4.448;2023-08-21T07:38:31;33.60;99.00
25949;DHT22;13961;51.178;4.448;2023-08-21T07:43:30;32.70;98.70
25949;DHT22;13961;51.178;4.448;2023-08-21T07:45:56;32.70;98.40
25949;DHT22;13961;51.178;4.448;2023-08-21T07:48:21;31.70;99.30
25949;DHT22;13961;51.178;4.448;2023-08-21T07:50:53;32.30;98.40
25949;DHT22;13961;51.178;4.448;2023-08-21T07:53:19;32.90;97.90
25949;DHT22;13961;51.178;4.448;2023-08-21T07:55:51;32.80;97.30
25949;DHT22;13961;51.178;4.448;2023-08-21T07:58:18;33.50;96.90
25949;DHT22;13961;51.178;4.448;2023-08-21T08:00:45;32.10;98.80
25949;DHT22;13961;51.178;4.448;2023-08-21T08:03:12;32.20;98.30
25949;DHT22;13961;51.178;4.448;2023-08-21T08:05:40;32.20;98.10
25949;DHT22;13961;51.178;4.448;2023-08-21T08:08:11;32.30;98.30
25949;DHT22;13961;51.178;4.448;2023-08-21T08:10:38;31.30;99.90
25949;DHT22;13961;51.178;4.448;2023-08-21T08:13:05;30.50;99.90
25949;DHT22;13961;51.178;4.448;2023-08-21T08:15:32;30.30;99.90
25949;DHT22;13961;51.178;4.448;2023-08-21T08:18:02;31.30;99.90
25949;DHT22;13961;51.178;4.448;2023-08-21T08:20:30;32.40;98.90
25949;DHT22;13961;51.178;4.448;2023-08-21T08:22:56;33.60;97.90
25949;DHT22;13961;51.178;4.448;2023-08-21T08:25:25;34.10;94.60
25949;DHT22;13961;51.178;4.448;2023-08-21T08:27:51;32.90;95.80
25949;DHT22;13961;51.178;4.448;2023-08-21T08:30:17;32.70;96.30
25949;DHT22;13961;51.178;4.448;2023-08-21T08:32:46;32.70;97.40
25949;DHT22;13961;51.178;4.448;2023-08-21T08:35:14;32.20;98.10
25949;DHT22;13961;51.178;4.448;2023-08-21T08:37:41;32.60;97.90
25949;DHT22;13961;51.178;4.448;2023-08-21T08:40:07;32.90;96.60
25949;DHT22;13961;51.178;4.448;2023-08-21T08:42:36;33.70;96.10
25949;DHT22;13961;51.178;4.448;2023-08-21T08:45:03;32.90;96.40
25949;DHT22;13961;51.178;4.448;2023-08-21T08:47:32;32.90;95.90
25949;DHT22;13961;51.178;4.448;2023-08-21T08:50:04;31.70;96.60
25949;DHT22;13961;51.178;4.448;2023-08-21T08:52:37;31.90;97.40
25949;DHT22;13961;51.178;4.448;2023-08-21T08:55:03;32.00;96.20
25949;DHT22;13961;51.178;4.448;2023-08-21T08:57:30;31.60;96.90
25949;DHT22;13961;51.178;4.448;2023-08-21T08:59:56;31.40;97.20
25949;DHT22;13961;51.178;4.448;2023-08-21T09:02:25;31.80;96.90
25949;DHT22;13961;51.178;4.448;2023-08-21T09:04:55;31.50;97.00
25949;DHT22;13961;51.178;4.448;2023-08-21T09:07:21;31.10;96.10
25949;DHT22;13961;51.178;4.448;2023-08-21T09:09:50;30.90;97.40
25949;DHT22;13961;51.178;4.448;2023-08-21T09:12:19;30.90;97.30
25949;DHT22;13961;51.178;4.448;2023-08-21T09:14:45;30.30;97.70
25949;DHT22;13961;51.178;4.448;2023-08-21T09:17:11;30.90;98.40
25949;DHT22;13961;51.178;4.448;2023-08-21T09:19:41;31.20;98.10
25949;DHT22;13961;51.178;4.448;2023-08-21T09:22:17;30.70;97.40
25949;DHT22;13961;51.178;4.448;2023-08-21T09:27:38;29.00;99.90
25949;DHT22;13961;51.178;4.448;2023-08-21T09:30:11;28.80;99.90
25949;DHT22;13961;51.178;4.448;2023-08-21T09:32:54;28.80;99.90
25949;DHT22;13961;51.178;4.448;2023-08-21T09:35:27;28.40;99.90
25949;DHT22;13961;51.178;4.448;2023-08-21T09:37:56;28.10;99.90
25949;DHT22;13961;51.178;4.448;2023-08-21T09:40:22;27.80;99.90
25949;DHT22;13961;51.178;4.448;2023-08-21T09:42:53;27.70;99.90
25949;DHT22;13961;51.178;4.448;2023-08-21T09:45:23;27.70;99.90
25949;DHT22;13961;51.178;4.448;2023-08-21T09:47:51;27.50;99.90
25949;DHT22;13961;51.178;4.448;2023-08-21T09:50:21;27.40;99.90
25949;DHT22;13961;51.178;4.448;2023-08-21T09:52:50;26.90;99.90
25949;DHT22;13961;51.178;4.448;2023-08-21T09:55:20;26.80;99.90
25949;DHT22;13961;51.178;4.448;2023-08-21T09:57:49;26.70;99.90
25949;DHT22;13961;51.178;4.448;2023-08-21T10:00:36;26.80;99.90
25949;DHT22;13961;51.178;4.448;2023-08-21T10:03:08;26.50;99.90
25949;DHT22;13961;51.178;4.448;2023-08-21T10:05:39;26.40;99.90
25949;DHT22;13961;51.178;4.448;2023-08-21T10:08:07;26.50;99.90
25949;DHT22;13961;51.178;4.448;2023-08-21T10:10:34;26.40;99.90
25949;DHT22;13961;51.178;4.448;2023-08-21T10:13:00;26.80;99.90
25949;DHT22;13961;51.178;4.448;2023-08-21T10:15:31;27.10;99.90
25949;DHT22;13961;51.178;4.448;2023-08-21T10:20:46;26.90;99.90
25949;DHT22;13961;51.178;4.448;2023-08-21T10:23:28;26.90;99.90
25949;DHT22;13961;51.178;4.448;2023-08-21T10:25:59;26.90;99.90
25949;DHT22;13961;51.178;4.448;2023-08-21T10:31:39;27.30;99.90
25949;DHT22;13961;51.178;4.448;2023-08-21T10:34:07;27.30;99.90
25949;DHT22;13961;51.178;4.448;2023-08-21T10:39:16;27.20;99.90
25949;DHT22;13961;51.178;4.448;2023-08-21T10:42:05;27.20;99.90
25949;DHT22;13961;51.178;4.448;2023-08-21T10:50:01;27.20;99.90
25949;DHT22;13961;51.178;4.448;2023-08-21T10:52:31;26.80;99.90
25949;DHT22;13961;51.178;4.448;2023-08-21T10:55:02;26.80;99.90
25949;DHT22;13961;51.178;4.448;2023-08-21T10:57:33;26.90;99.90
25949;DHT22;13961;51.178;4.448;2023-08-21T11:00:03;27.10;99.90
25949;DHT22;13961;51.178;4.448;2023-08-21T11:02:32;27.30;99.90
25949;DHT22;13961;51.178;4.448;2023-08-21T11:05:01;27.60;99.90
25949;DHT22;13961;51.178;4.448;2023-08-21T11:07:30;27.50;99.90
25949;DHT22;13961;51.178;4.448;2023-08-21T11:10:03;27.40;99.90
25949;DHT22;13961;51.178;4.448;2023-08-21T11:12:33;27.40;99.90
25949;DHT22;13961;51.178;4.448;2023-08-21T11:15:02;27.50;99.20
25949;DHT22;13961;51.178;4.448;2023-08-21T11:17:28;27.40;99.80
25949;DHT22;13961;51.178;4.448;2023-08-21T11:19:55;27.60;98.90
25949;DHT22;13961;51.178;4.448;2023-08-21T11:22:28;27.50;99.50
25949;DHT22;13961;51.178;4.448;2023-08-21T11:24:56;27.60;99.90
25949;DHT22;13961;51.178;4.448;2023-08-21T11:27:23;27.70;99.90
25949;DHT22;13961;51.178;4.448;2023-08-21T11:29:51;27.40;99.90
25949;DHT22;13961;51.178;4.448;2023-08-21T11:32:23;27.40;99.90
25949;DHT22;13961;51.178;4.448;2023-08-21T11:34:55;27.70;99.10
25949;DHT22;13961;51.178;4.448;2023-08-21T11:37:24;28.00;99.10
25949;DHT22;13961;51.178;4.448;2023-08-21T11:39:55;27.90;97.70
25949;DHT22;13961;51.178;4.448;2023-08-21T11:42:33;28.10;97.50
25949;DHT22;13961;51.178;4.448;2023-08-21T11:45:00;28.10;95.80
25949;DHT22;13961;51.178;4.448;2023-08-21T11:47:34;27.80;96.10
25949;DHT22;13961;51.178;4.448;2023-08-21T11:50:06;28.00;94.10
25949;DHT22;13961;51.178;4.448;2023-08-21T11:52:33;28.00;95.50
25949;DHT22;13961;51.178;4.448;2023-08-21T11:55:08;28.00;94.20
25949;DHT22;13961;51.178;4.448;2023-08-21T11:57:34;27.90;95.80
25949;DHT22;13961;51.178;4.448;2023-08-21T12:00:02;27.60;96.20
25949;DHT22;13961;51.178;4.448;2023-08-21T12:02:33;27.40;94.90
25949;DHT22;13961;51.178;4.448;2023-08-21T12:05:06;27.70;96.00
25949;DHT22;13961;51.178;4.448;2023-08-21T12:07:32;27.80;94.80
25949;DHT22;13961;51.178;4.448;2023-08-21T12:09:58;27.60;97.10
25949;DHT22;13961;51.178;4.448;2023-08-21T12:12:27;27.40;95.30
25949;DHT22;13961;51.178;4.448;2023-08-21T12:14:56;27.60;96.80
25949;DHT22;13961;51.178;4.448;2023-08-21T12:17:22;27.60;97.80
25949;DHT22;13961;51.178;4.448;2023-08-21T12:19:51;27.50;97.10
25949;DHT22;13961;51.178;4.448;2023-08-21T12:22:19;27.80;97.70
25949;DHT22;13961;51.178;4.448;2023-08-21T12:24:45;28.10;97.80
25949;DHT22;13961;51.178;4.448;2023-08-21T12:27:11;28.20;97.10
25949;DHT22;13961;51.178;4.448;2023-08-21T12:29:39;28.10;96.50
25949;DHT22;13961;51.178;4.448;2023-08-21T12:32:07;28.00;93.60
25949;DHT22;13961;51.178;4.448;2023-08-21T12:34:34;27.50;96.40
25949;DHT22;13961;51.178;4.448;2023-08-21T12:36:59;27.90;95.90
25949;DHT22;13961;51.178;4.448;2023-08-21T12:39:27;28.00;96.10
25949;DHT22;13961;51.178;4.448;2023-08-21T12:41:54;28.20;95.60
25949;DHT22;13961;51.178;4.448;2023-08-21T12:44:20;28.30;96.10
25949;DHT22;13961;51.178;4.448;2023-08-21T12:46:46;28.10;95.40
25949;DHT22;13961;51.178;4.448;2023-08-21T12:49:12;28.30;95.30
25949;DHT22;13961;51.178;4.448;2023-08-21T12:51:38;28.20;94.70
25949;DHT22;13961;51.178;4.448;2023-08-21T12:54:04;28.10;94.20
25949;DHT22;13961;51.178;4.448;2023-08-21T12:56:33;27.90;95.10
25949;DHT22;13961;51.178;4.448;2023-08-21T12:59:02;27.60;96.00
25949;DHT22;13961;51.178;4.448;2023-08-21T13:01:31;27.90;95.30
25949;DHT22;13961;51.178;4.448;2023-08-21T13:04:01;27.70;94.60
25949;DHT22;13961;51.178;4.448;2023-08-21T13:06:28;27.80;96.00
25949;DHT22;13961;51.178;4.448;2023-08-21T13:08:55;28.00;95.20
25949;DHT22;13961;51.178;4.448;2023-08-21T13:11:21;28.10;95.70
25949;DHT22;13961;51.178;4.448;2023-08-21T13:13:47;28.20;95.40
25949;DHT22;13961;51.178;4.448;2023-08-21T13:16:12;28.30;95.80
25949;DHT22;13961;51.178;4.448;2023-08-21T13:18:39;28.60;94.60
25949;DHT22;13961;51.178;4.448;2023-08-21T13:21:08;28.50;95.30
25949;DHT22;13961;51.178;4.448;2023-08-21T13:23:34;28.70;95.30
25949;DHT22;13961;51.178;4.448;2023-08-21T13:26:02;28.70;94.00
25949;DHT22;13961;51.178;4.448;2023-08-21T13:28:29;28.90;93.50
25949;DHT22;13961;51.178;4.448;2023-08-21T13:30:58;28.80;94.30
25949;DHT22;13961;51.178;4.448;2023-08-21T13:33:25;28.70;92.20
25949;DHT22;13961;51.178;4.448;2023-08-21T13:35:51;28.30;94.20
25949;DHT22;13961;51.178;4.448;2023-08-21T13:38:18;28.30;94.10
25949;DHT22;13961;51.178;4.448;2023-08-21T13:40:45;28.50;93.10
25949;DHT22;13961;51.178;4.448;2023-08-21T13:43:12;28.70;94.80
25949;DHT22;13961;51.178;4.448;2023-08-21T13:45:39;28.80;95.90
25949;DHT22;13961;51.178;4.448;2023-08-21T13:48:11;28.90;95.80
25949;DHT22;13961;51.178;4.448;2023-08-21T13:50:37;29.00;97.10
25949;DHT22;13961;51.178;4.448;2023-08-21T13:53:03;28.90;95.50
25949;DHT22;13961;51.178;4.448;2023-08-21T13:55:31;28.50;96.20
25949;DHT22;13961;51.178;4.448;2023-08-21T13:57:58;28.60;96.50
25949;DHT22;13961;51.178;4.448;2023-08-21T14:00:26;28.70;96.80
25949;DHT22;13961;51.178;4.448;2023-08-21T14:02:51;28.80;96.10
25949;DHT22;13961;51.178;4.448;2023-08-21T14:05:18;29.10;95.40
25949;DHT22;13961;51.178;4.448;2023-08-21T14:07:45;29.10;95.00
25949;DHT22;13961;51.178;4.448;2023-08-21T14:10:11;29.10;95.60
25949;DHT22;13961;51.178;4.448;2023-08-21T14:12:40;28.90;95.80
25949;DHT22;13961;51.178;4.448;2023-08-21T14:15:12;28.60;96.90
25949;DHT22;13961;51.178;4.448;2023-08-21T14:17:38;28.40;96.60
25949;DHT22;13961;51.178;4.448;2023-08-21T14:20:05;28.20;97.20
25949;DHT22;13961;51.178;4.448;2023-08-21T14:22:34;28.30;97.20
25949;DHT22;13961;51.178;4.448;2023-08-21T14:25:00;28.20;96.20
25949;DHT22;13961;51.178;4.448;2023-08-21T14:27:29;28.30;96.30
25949;DHT22;13961;51.178;4.448;2023-08-21T14:29:55;28.00;96.10
25949;DHT22;13961;51.178;4.448;2023-08-21T14:32:26;27.80;96.90
25949;DHT22;13961;51.178;4.448;2023-08-21T14:34:54;28.10;97.10
25949;DHT22;13961;51.178;4.448;2023-08-21T14:37:21;28.50;96.50
25949;DHT22;13961;51.178;4.448;2023-08-21T14:39:49;28.90;96.80
25949;DHT22;13961;51.178;4.448;2023-08-21T14:42:14;29.20;95.80
25949;DHT22;13961;51.178;4.448;2023-08-21T14:44:41;29.10;95.30
25949;DHT22;13961;51.178;4.448;2023-08-21T14:47:10;28.90;95.60
25949;DHT22;13961;51.178;4.448;2023-08-21T14:49:38;28.80;95.40
25949;DHT22;13961;51.178;4.448;2023-08-21T14:52:04;28.80;95.70
25949;DHT22;13961;51.178;4.448;2023-08-21T14:54:36;29.10;96.40
25949;DHT22;13961;51.178;4.448;2023-08-21T14:57:02;29.30;95.50
25949;DHT22;13961;51.178;4.448;2023-08-21T14:59:27;29.30;96.20
25949;DHT22;13961;51.178;4.448;2023-08-21T15:01:53;28.30;98.10
25949;DHT22;13961;51.178;4.448;2023-08-21T15:04:22;28.30;98.60
25949;DHT22;13961;51.178;4.448;2023-08-21T15:06:48;28.20;99.40
25949;DHT22;13961;51.178;4.448;2023-08-21T15:09:15;28.50;99.50
25949;DHT22;13961;51.178;4.448;2023-08-21T15:11:44;28.60;99.50
25949;DHT22;13961;51.178;4.448;2023-08-21T15:14:11;28.60;98.70
25949;DHT22;13961;51.178;4.448;2023-08-21T15:16:40;28.50;99.30
25949;DHT22;13961;51.178;4.448;2023-08-21T15:19:07;28.60;99.60
25949;DHT22;13961;51.178;4.448;2023-08-21T15:21:35;28.70;99.00
25949;DHT22;13961;51.178;4.448;2023-08-21T15:24:01;28.70;99.20
25949;DHT22;13961;51.178;4.448;2023-08-21T15:26:27;28.80;99.80
25949;DHT22;13961;51.178;4.448;2023-08-21T15:28:54;28.70;99.40
25949;DHT22;13961;51.178;4.448;2023-08-21T15:31:21;28.60;99.90
25949;DHT22;13961;51.178;4.448;2023-08-21T15:33:47;28.60;99.50
25949;DHT22;13961;51.178;4.448;2023-08-21T15:36:16;28.80;99.20
25949;DHT22;13961;51.178;4.448;2023-08-21T15:38:41;28.90;99.70
25949;DHT22;13961;51.178;4.448;2023-08-21T15:41:10;28.90;98.30
25949;DHT22;13961;51.178;4.448;2023-08-21T15:43:38;28.90;98.90
25949;DHT22;13961;51.178;4.448;2023-08-21T15:46:07;28.70;98.90
25949;DHT22;13961;51.178;4.448;2023-08-21T15:48:35;28.70;98.90
25949;DHT22;13961;51.178;4.448;2023-08-21T15:51:01;28.60;99.60
25949;DHT22;13961;51.178;4.448;2023-08-21T15:53:34;28.40;99.60
25949;DHT22;13961;51.178;4.448;2023-08-21T15:56:01;28.50;99.90